createdAt,value
2018-11-21T00:02:00.109Z,38.50
2018-11-21T00:04:48.523Z,39.13
2018-11-21T00:07:36.381Z,39.90
2018-11-21T00:10:23.616Z,36.77
2018-11-21T00:13:11.845Z,49.30
2018-11-21T00:15:59.567Z,42.60
2018-11-21T00:18:47.132Z,36.40
2018-11-21T00:21:35.315Z,48.60
2018-11-21T00:24:23.143Z,43.30
2018-11-21T00:30:17.309Z,40.83
2018-11-21T00:33:05.106Z,37.97
2018-11-21T00:35:53.116Z,43.87
2018-11-21T00:38:40.398Z,39.77
2018-11-21T00:41:28.332Z,37.93
2018-11-21T00:44:16.686Z,40.37
2018-11-21T00:47:04.414Z,39.97
2018-11-21T00:49:52.112Z,40.97
2018-11-21T00:52:39.630Z,39.53
2018-11-21T00:55:27.559Z,39.23
2018-11-21T00:58:16.132Z,38.07
2018-11-21T01:01:03.771Z,41.53
2018-11-21T01:03:51.790Z,43.90
2018-11-21T01:06:39.595Z,39.60
2018-11-21T01:09:27.078Z,46.95
2018-11-21T01:12:15.064Z,42.23
2018-11-21T01:15:02.750Z,39.67
2018-11-21T01:17:50.621Z,38.63
2018-11-21T01:20:38.532Z,43.47
2018-11-21T01:23:26.681Z,47.97
2018-11-21T01:26:14.711Z,40.87
2018-11-21T01:29:02.148Z,41.47
2018-11-21T01:31:50.296Z,47.22
2018-11-21T01:34:38.841Z,43.70
2018-11-21T01:37:26.189Z,40.40
2018-11-21T01:40:14.245Z,42.07
2018-11-21T01:43:01.516Z,41.77
2018-11-21T01:45:49.172Z,35.13
2018-11-21T01:48:37.065Z,39.37
2018-11-21T01:51:25.953Z,38.47
2018-11-21T01:54:13.285Z,40.10
2018-11-21T01:57:00.908Z,37.77
2018-11-21T01:59:49.078Z,48.50
2018-11-21T02:02:38.006Z,42.73
2018-11-21T02:05:25.842Z,37.10
2018-11-21T02:08:15.066Z,42.37
2018-11-21T02:11:03.102Z,38.03
2018-11-21T02:13:50.755Z,36.83
2018-11-21T02:16:38.097Z,36.23
2018-11-21T02:19:25.763Z,40.57
2018-11-21T02:22:14.995Z,40.90
2018-11-21T02:25:02.954Z,40.53
2018-11-21T02:27:49.963Z,40.40
2018-11-21T02:30:37.601Z,45.90
2018-11-21T02:33:25.319Z,42.97
2018-11-21T02:36:14.058Z,39.17
2018-11-21T02:39:03.877Z,39.90
2018-11-21T02:41:56.978Z,39.27
2018-11-21T02:44:44.906Z,42.20
2018-11-21T02:47:32.114Z,41.90
2018-11-21T02:50:19.951Z,36.00
2018-11-21T02:53:09.831Z,37.97
2018-11-21T02:55:58.709Z,40.90
2018-11-21T02:58:48.338Z,37.03
2018-11-21T03:01:36.087Z,41.27
2018-11-21T03:04:23.838Z,40.70
2018-11-21T03:07:11.462Z,38.40
2018-11-21T03:09:59.328Z,38.63
2018-11-21T03:12:47.095Z,35.23
2018-11-21T03:15:39.513Z,39.23
2018-11-21T03:18:27.552Z,40.27
2018-11-21T03:21:17.505Z,47.35
2018-11-21T03:24:09.499Z,42.23
2018-11-21T03:27:00.898Z,44.17
2018-11-21T03:29:48.611Z,39.37
2018-11-21T03:32:45.019Z,41.73
2018-11-21T03:35:36.552Z,44.67
2018-11-21T03:38:24.454Z,37.90
2018-11-21T03:41:14.137Z,41.03
2018-11-21T03:44:02.263Z,40.10
2018-11-21T03:46:51.628Z,35.27
2018-11-21T03:49:41.221Z,40.30
2018-11-21T03:52:28.718Z,39.33
2018-11-21T03:55:19.145Z,38.53
2018-11-21T03:58:08.089Z,39.03
2018-11-21T04:00:55.484Z,41.03
2018-11-21T04:03:46.926Z,40.97
2018-11-21T04:06:35.144Z,36.33
2018-11-21T04:09:28.911Z,40.03
2018-11-21T04:12:18.592Z,41.70
2018-11-21T04:15:06.677Z,39.33
2018-11-21T04:17:54.577Z,38.87
2018-11-21T04:20:41.973Z,35.60
2018-11-21T04:23:29.375Z,38.47
2018-11-21T04:26:16.584Z,41.93
2018-11-21T04:29:03.677Z,41.87
2018-11-21T04:31:50.883Z,42.07
2018-11-21T04:34:39.664Z,44.30
2018-11-21T04:37:27.195Z,38.90
2018-11-21T04:40:14.542Z,41.37
2018-11-21T04:43:01.946Z,40.53
2018-11-21T04:45:49.692Z,48.15
2018-11-21T04:48:37.161Z,42.57
2018-11-21T04:51:24.950Z,47.25
2018-11-21T04:54:12.686Z,45.80
2018-11-21T04:57:01.843Z,49.42
2018-11-21T04:59:49.801Z,43.43
2018-11-21T05:02:37.918Z,42.37
2018-11-21T05:05:25.456Z,47.65
2018-11-21T05:08:13.979Z,45.40
2018-11-21T05:11:01.860Z,41.07
2018-11-21T05:13:51.438Z,42.30
2018-11-21T05:16:38.784Z,40.00
2018-11-21T05:19:27.903Z,42.50
2018-11-21T05:22:15.278Z,41.47
2018-11-21T05:25:03.575Z,41.00
2018-11-21T05:27:51.819Z,45.10
2018-11-21T05:30:40.192Z,52.05
2018-11-21T05:33:29.344Z,46.07
2018-11-21T05:36:17.773Z,48.40
2018-11-21T05:39:06.013Z,43.97
2018-11-21T05:41:53.490Z,46.23
2018-11-21T05:44:41.363Z,52.88
2018-11-21T05:47:29.131Z,45.80
2018-11-21T05:50:24.490Z,49.10
2018-11-21T05:53:11.954Z,47.80
2018-11-21T05:55:59.509Z,45.63
2018-11-21T06:01:54.285Z,47.90
2018-11-21T06:04:42.227Z,50.30
2018-11-21T06:07:30.112Z,47.30
2018-11-21T06:10:17.857Z,52.90
2018-11-21T06:13:05.444Z,47.63
2018-11-21T06:15:54.346Z,48.57
2018-11-21T06:18:41.897Z,48.53
2018-11-21T06:21:29.057Z,48.27
2018-11-21T06:24:16.621Z,51.07
2018-11-21T06:27:03.932Z,51.50
2018-11-21T06:29:52.864Z,52.17
2018-11-21T06:32:41.917Z,49.57
2018-11-21T06:35:29.374Z,50.37
2018-11-21T06:38:17.595Z,56.50
2018-11-21T06:41:04.835Z,52.47
2018-11-21T06:44:08.019Z,51.03
2018-11-21T06:46:55.199Z,49.27
2018-11-21T06:49:43.804Z,53.03
2018-11-21T06:52:31.284Z,70.65
2018-11-21T06:55:18.828Z,56.53
2018-11-21T06:58:08.262Z,55.63
2018-11-21T07:00:57.291Z,60.17
2018-11-21T07:03:49.142Z,61.17
2018-11-21T07:12:50.819Z,57.47
2018-11-21T07:15:38.602Z,55.90
2018-11-21T07:18:26.382Z,59.57
2018-11-21T07:21:15.389Z,58.07
2018-11-21T07:24:05.649Z,59.60
2018-11-21T07:26:52.861Z,58.33
2018-11-21T07:29:40.548Z,64.57
2018-11-21T07:32:27.940Z,72.68
2018-11-21T07:35:18.076Z,75.00
2018-11-21T07:38:02.756Z,63.17
2018-11-21T07:40:50.276Z,58.63
2018-11-21T07:43:37.838Z,63.00
2018-11-21T07:46:25.426Z,59.87
2018-11-21T07:49:12.503Z,61.87
2018-11-21T07:52:07.719Z,62.50
2018-11-21T07:54:55.981Z,63.60
2018-11-21T07:57:43.302Z,63.93
2018-11-21T08:00:39.390Z,61.87
2018-11-21T08:03:30.185Z,60.60
2018-11-21T08:06:18.065Z,64.27
2018-11-21T08:09:05.250Z,65.17
2018-11-21T08:11:52.587Z,75.20
2018-11-21T08:14:40.118Z,64.47
2018-11-21T08:17:27.253Z,64.50
2018-11-21T08:20:14.710Z,63.03
2018-11-21T08:23:02.075Z,57.93
2018-11-21T08:25:51.135Z,59.93
2018-11-21T08:28:42.184Z,62.43
2018-11-21T08:31:33.765Z,62.73
2018-11-21T08:34:21.015Z,59.37
2018-11-21T08:37:08.703Z,60.20
2018-11-21T08:39:56.042Z,71.10
2018-11-21T08:42:44.549Z,70.60
2018-11-21T08:45:31.387Z,63.97
2018-11-21T08:48:18.792Z,62.60
2018-11-21T08:51:06.335Z,59.47
2018-11-21T08:53:54.152Z,56.67
2018-11-21T08:56:41.111Z,57.17
2018-11-21T08:59:28.295Z,53.30
2018-11-21T09:02:16.681Z,64.05
2018-11-21T09:05:04.586Z,60.10
2018-11-21T09:07:52.107Z,53.73
2018-11-21T09:10:39.555Z,58.37
2018-11-21T09:13:26.827Z,56.03
2018-11-21T09:16:21.946Z,58.10
2018-11-21T09:19:09.428Z,54.33
2018-11-21T09:21:57.191Z,56.27
2018-11-21T09:24:44.269Z,62.13
2018-11-21T09:27:32.464Z,63.55
2018-11-21T09:30:19.710Z,62.25
2018-11-21T09:33:07.178Z,54.67
2018-11-21T09:35:55.254Z,54.93
2018-11-21T09:38:42.952Z,56.30
2018-11-21T09:41:30.494Z,53.33
2018-11-21T09:44:18.171Z,58.80
2018-11-21T09:47:05.594Z,55.40
2018-11-21T09:49:53.262Z,51.60
2018-11-21T09:52:40.585Z,54.37
2018-11-21T09:55:28.166Z,63.22
2018-11-21T09:58:15.429Z,57.27
2018-11-21T10:01:33.657Z,58.77
2018-11-21T10:04:22.303Z,55.60
2018-11-21T10:07:09.478Z,52.83
2018-11-21T10:09:57.182Z,54.73
2018-11-21T10:12:44.639Z,55.57
2018-11-21T10:15:32.466Z,58.40
2018-11-21T10:18:20.068Z,61.05
2018-11-21T10:21:07.689Z,59.53
2018-11-21T10:23:55.015Z,58.17
2018-11-21T10:26:42.261Z,60.40
2018-11-21T10:29:31.294Z,56.93
2018-11-21T10:32:18.292Z,58.70
2018-11-21T10:35:05.794Z,64.20
2018-11-21T10:37:53.092Z,54.20
2018-11-21T10:40:41.518Z,57.43
2018-11-21T10:43:30.790Z,58.40
2018-11-21T10:46:17.918Z,54.90
2018-11-21T10:49:05.216Z,65.03
2018-11-21T10:51:52.417Z,57.27
2018-11-21T10:54:40.145Z,57.63
2018-11-21T10:57:27.461Z,56.90
2018-11-21T11:00:14.803Z,61.70
2018-11-21T11:03:02.233Z,54.43
2018-11-21T11:05:50.037Z,63.87
2018-11-21T11:08:37.602Z,63.20
2018-11-21T11:11:25.317Z,59.13
2018-11-21T11:14:13.747Z,68.57
2018-11-21T11:17:01.628Z,62.13
2018-11-21T11:19:49.609Z,62.23
2018-11-21T11:22:37.261Z,57.53
2018-11-21T11:28:30.990Z,59.60
2018-11-21T11:31:18.243Z,54.87
2018-11-21T11:34:05.441Z,51.37
2018-11-21T11:36:52.655Z,56.30
2018-11-21T11:39:40.042Z,54.77
2018-11-21T11:42:27.283Z,52.10
2018-11-21T11:45:14.629Z,51.00
2018-11-21T11:48:02.305Z,56.00
2018-11-21T11:50:49.870Z,52.97
2018-11-21T11:53:38.310Z,61.58
2018-11-21T11:56:27.744Z,59.47
2018-11-21T11:59:15.132Z,54.77
2018-11-21T12:02:02.591Z,56.83
2018-11-21T12:04:49.868Z,61.75
2018-11-21T12:07:37.348Z,59.08
2018-11-21T12:10:24.757Z,63.93
2018-11-21T12:13:12.550Z,57.50
2018-11-21T12:15:59.655Z,60.23
2018-11-21T12:18:54.651Z,53.10
2018-11-21T12:21:41.927Z,48.10
2018-11-21T12:24:29.024Z,50.47
2018-11-21T12:27:16.141Z,50.63
2018-11-21T12:30:03.625Z,54.00
2018-11-21T12:32:58.559Z,48.37
2018-11-21T12:35:45.785Z,51.27
2018-11-21T12:38:33.182Z,59.42
2018-11-21T12:41:20.421Z,56.55
2018-11-21T12:44:07.909Z,52.93
2018-11-21T12:46:54.961Z,55.90
2018-11-21T12:49:42.171Z,51.47
2018-11-21T12:52:30.903Z,49.13
2018-11-21T12:55:18.522Z,58.20
2018-11-21T12:58:05.565Z,56.53
2018-11-21T13:00:52.833Z,54.87
2018-11-21T13:03:40.346Z,49.33
2018-11-21T13:06:27.857Z,49.53
2018-11-21T13:09:15.731Z,59.47
2018-11-21T13:12:03.389Z,55.93
2018-11-21T13:14:51.289Z,58.00
2018-11-21T13:17:38.500Z,52.13
2018-11-21T13:20:26.343Z,53.57
2018-11-21T13:23:13.943Z,52.83
2018-11-21T13:26:02.958Z,52.13
2018-11-21T13:28:50.440Z,50.43
2018-11-21T13:31:39.324Z,56.10
2018-11-21T13:34:27.213Z,52.63
2018-11-21T13:37:14.920Z,59.55
2018-11-21T13:40:02.532Z,57.73
2018-11-21T13:42:49.894Z,56.27
2018-11-21T13:45:37.674Z,51.87
2018-11-21T13:48:25.483Z,56.33
2018-11-21T13:51:13.217Z,52.87
2018-11-21T13:54:01.190Z,55.13
2018-11-21T13:56:48.412Z,52.93
2018-11-21T13:59:35.627Z,54.00
2018-11-21T14:02:22.999Z,56.50
2018-11-21T14:08:24.851Z,51.57
2018-11-21T14:11:12.216Z,61.37
2018-11-21T14:14:01.471Z,55.47
2018-11-21T14:16:48.253Z,57.50
2018-11-21T14:19:35.843Z,53.93
2018-11-21T14:22:22.806Z,53.60
2018-11-21T14:25:25.520Z,50.60
2018-11-21T14:28:17.341Z,58.60
2018-11-21T14:31:05.520Z,54.67
2018-11-21T14:33:52.809Z,62.00
2018-11-21T14:36:40.401Z,55.03
2018-11-21T14:39:28.540Z,57.67
2018-11-21T14:42:16.495Z,58.87
2018-11-21T14:48:10.918Z,53.53
2018-11-21T14:50:58.346Z,56.93
2018-11-21T14:53:46.025Z,65.28
2018-11-21T14:56:33.868Z,58.63
2018-11-21T14:59:21.778Z,56.47
2018-11-21T15:02:08.981Z,61.30
2018-11-21T15:04:56.442Z,59.43
2018-11-21T15:07:43.822Z,58.83
2018-11-21T15:10:31.182Z,54.97
2018-11-21T15:13:18.259Z,59.53
2018-11-21T15:16:05.634Z,56.23
2018-11-21T15:18:52.987Z,59.47
2018-11-21T15:21:40.090Z,59.73
2018-11-21T15:24:28.031Z,57.70
2018-11-21T15:27:16.018Z,61.40
2018-11-21T15:33:09.907Z,60.30
2018-11-21T15:35:57.349Z,60.53
2018-11-21T15:38:45.100Z,60.13
2018-11-21T15:41:32.585Z,63.83
2018-11-21T15:44:20.382Z,65.28
2018-11-21T15:47:07.632Z,65.20
2018-11-21T15:49:54.746Z,61.00
2018-11-21T15:52:42.067Z,64.33
2018-11-21T15:55:29.552Z,55.57
2018-11-21T15:58:16.887Z,58.33
2018-11-21T16:01:04.335Z,63.07
2018-11-21T16:03:51.760Z,56.00
2018-11-21T16:06:38.808Z,69.50
2018-11-21T16:09:26.566Z,62.77
2018-11-21T16:12:14.646Z,63.13
2018-11-21T16:15:06.272Z,59.53
2018-11-21T16:17:57.588Z,60.67
2018-11-21T16:20:48.081Z,62.00
2018-11-21T16:23:36.662Z,57.57
2018-11-21T16:26:25.501Z,58.13
2018-11-21T16:29:14.722Z,68.80
2018-11-21T16:32:02.141Z,70.40
2018-11-21T16:34:49.981Z,67.43
2018-11-21T16:37:37.074Z,68.40
2018-11-21T16:40:25.340Z,60.47
2018-11-21T16:43:22.640Z,55.60
2018-11-21T16:46:16.441Z,57.40
2018-11-21T16:49:07.115Z,54.90
2018-11-21T16:55:23.586Z,57.73
2018-11-21T16:58:14.108Z,58.33
2018-11-21T17:04:12.125Z,59.13
2018-11-21T17:10:08.640Z,65.47
2018-11-21T17:16:07.036Z,63.93
2018-11-21T17:18:54.525Z,75.78
2018-11-21T17:21:52.774Z,71.00
2018-11-21T17:24:40.973Z,67.20
2018-11-21T17:30:51.845Z,63.77
2018-11-21T17:33:45.651Z,71.47
2018-11-21T17:46:04.175Z,62.57
2018-11-21T17:48:57.297Z,60.73
2018-11-21T18:10:36.255Z,64.23
2018-11-21T18:13:25.827Z,62.83
2018-11-21T18:19:44.678Z,58.90
2018-11-21T18:22:48.881Z,52.53
2018-11-21T18:25:39.817Z,56.40
2018-11-21T18:28:38.920Z,58.43
2018-11-21T18:34:33.779Z,57.20
2018-11-21T18:40:43.688Z,57.20
2018-11-21T18:43:32.830Z,53.30
2018-11-21T18:46:27.306Z,52.53
2018-11-21T18:49:28.549Z,53.33
2018-11-21T18:52:29.614Z,54.70
2018-11-21T18:58:28.813Z,54.27
2018-11-21T19:04:42.482Z,66.73
2018-11-21T19:07:31.769Z,65.13
2018-11-21T19:13:52.449Z,60.83
2018-11-21T19:23:00.965Z,56.07
2018-11-21T19:25:52.752Z,58.13
2018-11-21T19:28:42.009Z,55.97
2018-11-21T19:31:31.304Z,57.67
2018-11-21T19:34:19.543Z,61.10
2018-11-21T19:43:49.640Z,59.97
2018-11-21T19:46:38.634Z,59.57
2018-11-21T19:49:33.362Z,60.37
2018-11-21T19:52:35.847Z,61.80
2018-11-21T19:55:24.123Z,57.07
2018-11-21T19:58:13.674Z,61.77
2018-11-21T20:01:02.208Z,58.87
2018-11-21T20:03:50.912Z,59.87
2018-11-21T20:06:43.630Z,61.97
2018-11-21T20:09:31.111Z,63.17
2018-11-21T20:12:22.822Z,59.13
2018-11-21T20:15:13.461Z,63.60
2018-11-21T20:18:03.032Z,55.93
2018-11-21T20:20:56.295Z,57.60
2018-11-21T20:23:45.376Z,60.97
2018-11-21T20:26:40.318Z,60.00
2018-11-21T20:29:29.788Z,59.33
2018-11-21T20:35:36.445Z,67.30
2018-11-21T20:47:48.211Z,61.47
2018-11-21T20:50:39.194Z,60.60
2018-11-21T20:59:42.428Z,59.37
2018-11-21T21:02:32.564Z,60.23
2018-11-21T21:05:20.303Z,60.27
2018-11-21T21:08:09.794Z,56.60
2018-11-21T21:17:12.114Z,66.10
2018-11-21T21:20:02.168Z,55.50
2018-11-21T21:25:57.919Z,76.62
2018-11-21T21:28:45.441Z,64.47
2018-11-21T21:31:33.206Z,61.70
2018-11-21T21:34:20.807Z,57.23
2018-11-21T21:37:09.882Z,75.37
2018-11-21T21:43:03.880Z,60.07
2018-11-21T21:45:51.339Z,56.17
2018-11-21T21:48:38.752Z,57.43
2018-11-21T21:51:27.578Z,61.43
2018-11-21T21:54:15.026Z,59.13
2018-11-21T22:00:13.502Z,63.77
2018-11-21T22:06:09.647Z,56.57
2018-11-21T22:12:05.436Z,58.80
2018-11-21T22:14:53.054Z,59.40
2018-11-21T22:17:40.822Z,57.87
2018-11-21T22:20:28.388Z,56.93
2018-11-21T22:26:29.388Z,58.87
2018-11-21T22:29:16.761Z,62.23
2018-11-21T22:32:05.303Z,73.93
2018-11-21T22:34:55.796Z,58.97
2018-11-21T22:37:44.287Z,64.40
2018-11-21T22:40:31.775Z,58.27
2018-11-21T22:46:37.549Z,69.47
2018-11-21T22:49:24.900Z,66.03
2018-11-21T22:52:12.296Z,67.67
2018-11-21T22:54:59.473Z,56.70
2018-11-21T22:57:49.419Z,65.37
2018-11-21T23:00:37.127Z,62.80
2018-11-21T23:03:24.557Z,62.33
2018-11-21T23:06:11.824Z,59.33
2018-11-21T23:08:59.350Z,59.83
2018-11-21T23:14:54.852Z,61.13
2018-11-21T23:17:41.976Z,66.63
2018-11-21T23:20:29.907Z,66.23
2018-11-21T23:23:26.351Z,73.68
2018-11-21T23:26:14.496Z,82.32
2018-11-21T23:29:02.501Z,64.43
2018-11-21T23:31:50.004Z,67.67
2018-11-21T23:34:37.985Z,79.00
2018-11-21T23:37:25.771Z,67.33
2018-11-21T23:40:13.903Z,65.80
2018-11-21T23:43:01.668Z,64.07
2018-11-21T23:45:49.255Z,81.05
2018-11-21T23:48:38.032Z,67.63
2018-11-21T23:51:26.394Z,69.20
2018-11-21T23:54:20.244Z,60.10
2018-11-21T23:57:16.196Z,64.60
2018-11-21T23:59:58.249Z,63.83
